• Join FlightAware (Why Join?)
  • Login
  • US Flag 
03:54PM EST


 

Airport Tracker/Info


-or-


 

Live Flight TrackerFlight Track Log ✈ ASQ4219 ✈ 24-Apr-2014 ✈ KORD - KICT

Flight Track Log - Related Links

Times and Time Zones

All times are in EDT time to prevent confusion due to time zone crossing. See the ASQ4219 flight status page for this flight to view local times or setup timezone preferences in your user account.

Time Position Orientation Groundspeed Altitude Reporting Facility
EDT Latitude Longitude Course Direction KTS MPH feet Rate Location/Type
06:34PM 41.9500 -87.8833 251° West 171 197 3,400  Level Chicago TRACON
06:36PM 41.9044 -87.9381 222° Southwest 172 198 6,700 2,400 Climbing Chicago Center
06:37PM 41.8869 -88.3157 255° West  Level FlightAware Approximate
06:37PM 41.8503 -87.9944 218° Southwest 255 293 8,600  Level Chicago Center
06:38PM 41.8580 -88.4543 253° West  Level FlightAware Approximate
06:38PM 41.8292 -88.0900 254° West 261 300 12,000  Level Chicago Center
06:39PM 41.8263 -88.5918 253° West  Level FlightAware Approximate
06:39PM 41.8253 -88.1881 267° West 263 303 14,400  Level Chicago Center
06:40PM 41.7967 -88.7300 251° West  Level FlightAware Approximate
06:40PM 41.8214 -88.2969 267° West 270 311 15,000  Level Chicago Center
06:41PM 41.8167 -88.4014 267° West 279 321 16,600 1,200 Climbing Chicago Center
06:42PM 41.8103 -88.5233 266° West 306 352 17,600 780 Climbing Chicago Center
06:43PM 41.8044 -88.6500 267° West 350 403 18,300 960 Climbing Chicago Center
06:44PM 41.7975 -88.7872 266° West 370 426 19,600 1,080 Climbing Chicago Center
06:45PM 41.7817 -88.9267 261° West 378 435 20,600 1,140 Climbing Chicago Center
06:46PM 41.7597 -89.0981 260° West 389 448 22,000 1,020 Climbing Chicago Center
06:47PM 41.7242 -89.2350 251° West 399 459 22,800 720 Climbing Chicago Center
06:48PM 41.6756 -89.3667 244° Southwest 399 459 23,600 840 Climbing Chicago Center
06:49PM 41.6269 -89.4981 244° Southwest 399 459 24,600 1,080 Climbing Chicago Center
06:50PM 41.5753 -89.6400 244° Southwest 391 450 25,900 1,200 Climbing Chicago Center
06:51PM 41.5264 -89.7644 242° Southwest 386 444 27,100 1,140 Climbing Chicago Center
06:52PM 41.4772 -89.8856 242° Southwest 377 434 28,300 1,140 Climbing Chicago Center
06:53PM 41.4281 -90.0031 241° Southwest 371 427 29,500 1,140 Climbing Chicago Center
06:54PM 41.3792 -90.1225 241° Southwest 369 425 30,700 1,200 Climbing Chicago Center
06:55PM 41.3192 -90.2647 241° Southwest 370 426 32,100 1,080 Climbing Chicago Center
06:56PM 41.2697 -90.3842 241° Southwest 370 426 33,000 900 Climbing Chicago Center
06:57PM 41.2150 -90.5131 241° Southwest 397 457 34,000 960 Climbing Chicago Center
06:58PM 41.1653 -90.6294 240° Southwest 372 428 35,000 480 Climbing Chicago Center
06:59PM 41.1131 -90.7506 240° Southwest 374 430 35,000  Level Chicago Center
07:00PM 41.0492 -90.9017 241° Southwest 389 448 35,000  Level Chicago Center
07:01PM 40.9956 -91.0258 240° Southwest 390 449 35,000  Level Chicago Center
07:03PM 40.9431 -91.1492 241° Southwest 388 447 35,000  Level Chicago Center
07:04PM 40.8894 -91.2731 240° Southwest 388 447 35,000  Level Chicago Center
07:05PM 40.8353 -91.3975 240° Southwest 388 447 35,000  Level Chicago Center
07:06PM 40.7722 -91.5467 241° Southwest 389 448 35,000  Level Chicago Center
07:07PM 40.7289 -91.6783 247° West 390 449 35,000 120 Level Chicago Center
07:08PM 40.6853 -91.8097 246° West 393 452 35,300 480 Climbing Chicago Center
07:09PM 40.6417 -91.9356 245° Southwest 386 444 36,000 360 Climbing Chicago Center
07:10PM 40.5994 -92.0606 246° West 382 440 36,000  Level Kansas City Center
07:11PM 40.5567 -92.1881 246° West 382 440 36,000  Level Kansas City Center
07:12PM 40.5122 -92.3169 246° West 386 444 36,000  Level Kansas City Center
07:13PM 40.4669 -92.4511 246° West 386 444 36,000  Level Kansas City Center
07:14PM 40.4239 -92.5789 246° West 386 444 36,000  Level Kansas City Center
07:15PM 40.3769 -92.7108 245° Southwest 385 443 36,000  Level Kansas City Center
07:16PM 40.3119 -92.8367 236° Southwest 376 433 36,000  Level Kansas City Center
07:17PM 40.2558 -92.9425 235° Southwest 372 428 36,000  Level Kansas City Center
07:18PM 40.1897 -93.0694 236° Southwest 372 428 36,000  Level Kansas City Center
07:19PM 40.1308 -93.1786 235° Southwest 372 428 36,000  Level Kansas City Center
07:20PM 40.0717 -93.2903 235° Southwest 373 429 36,000  Level Kansas City Center
07:21PM 40.0114 -93.4014 235° Southwest 374 430 36,000  Level Kansas City Center
07:22PM 39.9539 -93.5136 236° Southwest 375 432 36,000  Level Kansas City Center
07:23PM 39.8925 -93.6242 234° Southwest 375 432 36,000  Level Kansas City Center
07:24PM 39.8214 -93.7578 235° Southwest 376 433 36,000  Level Kansas City Center
07:25PM 39.7594 -93.8736 235° Southwest 377 434 36,000  Level Kansas City Center
07:26PM 39.6994 -93.9811 234° Southwest 380 437 36,000  Level Kansas City Center
07:27PM 39.6311 -94.1078 235° Southwest 382 440 36,000  Level Kansas City Center
07:28PM 39.5711 -94.2181 235° Southwest 388 447 36,000  Level Kansas City Center
07:29PM 39.5111 -94.3289 235° Southwest 389 448 36,000  Level Kansas City Center
07:30PM 39.4392 -94.4597 235° Southwest 397 457 36,000  Level Kansas City Center
07:31PM 39.3778 -94.5708 234° Southwest 397 457 36,000 -720 Level Kansas City Center
07:32PM 39.3042 -94.7036 234° Southwest 400 460 34,600 -1,680 Descending Kansas City Center
07:33PM 39.2442 -94.8217 237° Southwest 405 466 32,600 -2,040 Descending Kansas City Center
07:34PM 39.1772 -94.9656 239° Southwest 411 473 30,400 -2,040 Descending Kansas City Center
07:35PM 39.1183 -95.0900 239° Southwest 416 479 28,400 -2,040 Descending Kansas City Center
07:36PM 39.0525 -95.2239 238° Southwest 426 490 26,300 -2,040 Descending Kansas City Center
07:37PM 38.9919 -95.3547 239° Southwest 401 461 24,200 -1,140 Descending Kansas City Center
07:38PM 38.9339 -95.4742 238° Southwest 411 473 24,000 -840 Descending Kansas City Center
07:39PM 38.8786 -95.5878 238° Southwest 395 455 22,500 -1,800 Descending Kansas City Center
07:41PM 38.8156 -95.7192 238° Southwest 385 443 20,300 -2,040 Descending Kansas City Center
07:42PM 38.7586 -95.8333 237° Southwest 392 451 18,300 -1,620 Descending Kansas City Center
07:43PM 38.6933 -95.9708 239° Southwest 403 464 17,000 -660 Descending Kansas City Center
07:44PM 38.6358 -96.0900 238° Southwest 405 466 17,000  Level Kansas City Center
07:45PM 38.5661 -96.2267 237° Southwest 411 473 17,000  Level Kansas City Center
07:46PM 38.5086 -96.3428 238° Southwest 407 468 17,000  Level Kansas City Center
07:47PM 38.4431 -96.4719 237° Southwest 406 467 17,000  Level Kansas City Center
07:48PM 38.3872 -96.5869 238° Southwest 410 472 17,000  Level Kansas City Center
07:49PM 38.3261 -96.7092 238° Southwest 410 472 17,000  Level Kansas City Center
07:50PM 38.2714 -96.8203 238° Southwest 408 470 17,000  Level Kansas City Center
07:50PM 38.2533 -96.8544 236° Southwest 410 472 17,000  Level Kansas City Center
07:50PM 38.2294 -96.9044 239° Southwest 406 467 17,000 -1,560 Level Kansas City Center
07:51PM 38.1931 -96.9722 236° Southwest 401 461 15,400 -2,880 Descending Kansas City Center
07:51PM 38.1628 -97.0136 227° Southwest 389 448 14,100 -3,000 Descending Kansas City Center
07:52PM 38.1214 -97.0714 228° Southwest 383 441 12,300 -2,820 Descending Kansas City Center
07:52PM 38.0853 -97.1008 213° Southwest 374 430 11,300 -1,560 Descending Kansas City Center
07:53PM 38.0269 -97.1283 200° South 381 438 10,700 -840 Descending Kansas City Center
07:53PM 37.9769 -97.1525 201° Southwest 389 448 10,500 -420 Descending Kansas City Center
07:54PM 37.9331 -97.1714 199° South 348 400 10,300 -1,200 Descending Kansas City Center
07:54PM 37.8947 -97.1922 203° Southwest 304 350 9,300 -1,980 Descending Kansas City Center
07:55PM 37.8528 -97.2111 200° South 310 357 8,300 -2,040 Descending Kansas City Center
07:55PM 37.8142 -97.2286 200° South 298 343 7,300 -1,980 Descending Kansas City Center
07:56PM 37.7747 -97.2475 201° Southwest 299 344 6,300 -1,920 Descending Kansas City Center
07:56PM 37.7381 -97.2644 200° South 292 336 5,400 -2,160 Descending Kansas City Center
07:57PM 37.6872 -97.2914 203° Southwest 289 333 4,100 -1,800 Descending Kansas City Center
07:57PM 37.6661 -97.3022 202° Southwest 275 316 3,600 -1,080 Descending Kansas City Center
07:58PM 37.6186 -97.3289 204° Southwest 277 319 3,000 -660 Descending Kansas City Center
07:58PM 37.6039 -97.3542 234° Southwest 248 285 2,900 -240 Descending Kansas City Center
07:59PM 37.5956 -97.4050 258° West 261 300 2,800 -420 Descending Kansas City Center
07:59PM 37.5986 -97.4289 279° West 191 220 2,500 -1,080 Descending Kansas City Center
08:00PM 37.6178 -97.4503 319° Northwest 206 237 1,700 -1,140 Descending Kansas City Center
08:00PM 37.6319 -97.4475 North 131 151 1,400 -240 Descending Kansas City Center
08:01PM 37.6517 -97.4417 13° North 190 219 1,500 120 Climbing Kansas City Center